createdAt,value
2022-11-14T00:02:44.255Z,83.63
2022-11-14T00:05:30.193Z,93.22
2022-11-14T00:08:20.650Z,96.07
2022-11-14T00:11:06.709Z,103.72
2022-11-14T00:13:52.770Z,91.50
2022-11-14T00:16:38.256Z,104.67
2022-11-14T00:19:23.672Z,110.22
2022-11-14T00:22:09.999Z,100.05
2022-11-14T00:24:55.485Z,91.38
2022-11-14T00:27:40.957Z,78.50
2022-11-14T00:30:28.543Z,97.43
2022-11-14T00:33:19.886Z,90.60
2022-11-14T00:36:06.381Z,84.63
2022-11-14T00:38:55.386Z,77.50
2022-11-14T00:41:42.210Z,103.60
2022-11-14T00:44:28.088Z,75.37
2022-11-14T00:47:13.755Z,73.47
2022-11-14T00:49:59.288Z,60.37
2022-11-14T00:52:45.011Z,59.07
2022-11-14T00:55:31.419Z,56.20
2022-11-14T00:58:17.319Z,60.97
2022-11-14T01:01:02.808Z,63.23
2022-11-14T01:03:50.877Z,67.43
2022-11-14T01:06:36.441Z,72.13
2022-11-14T01:09:22.198Z,71.77
2022-11-14T01:12:08.168Z,62.77
2022-11-14T01:14:53.608Z,57.10
2022-11-14T01:17:39.346Z,56.17
2022-11-14T01:20:25.189Z,67.60
2022-11-14T01:23:13.135Z,60.57
2022-11-14T01:26:08.894Z,58.90
2022-11-14T01:28:54.706Z,59.50
2022-11-14T01:31:40.514Z,60.08
2022-11-14T01:34:26.634Z,60.40
2022-11-14T01:37:12.614Z,57.35
2022-11-14T01:39:58.550Z,51.03
2022-11-14T01:43:19.270Z,48.17
2022-11-14T01:46:07.407Z,49.88
2022-11-14T01:48:58.614Z,46.10
2022-11-14T01:54:43.309Z,44.10
2022-11-14T01:57:43.221Z,48.50
2022-11-14T02:00:29.200Z,43.25
2022-11-14T02:03:16.550Z,42.90
2022-11-14T02:06:04.777Z,47.17
2022-11-14T02:08:52.446Z,39.60
2022-11-14T02:11:46.448Z,40.88
2022-11-14T02:14:33.546Z,40.73
2022-11-14T02:17:29.426Z,35.63
2022-11-14T02:20:20.896Z,34.87
2022-11-14T02:23:06.746Z,45.45
2022-11-14T02:25:52.661Z,33.42
2022-11-14T02:28:38.502Z,40.45
2022-11-14T02:31:24.554Z,38.75
2022-11-14T02:34:10.461Z,40.58
2022-11-14T02:36:57.098Z,38.05
2022-11-14T02:39:43.016Z,38.45
2022-11-14T02:42:28.696Z,36.65
2022-11-14T02:45:14.660Z,38.72
2022-11-14T02:48:00.616Z,37.60
2022-11-14T02:50:49.659Z,33.42
2022-11-14T02:53:35.435Z,33.75
2022-11-14T02:56:21.503Z,36.78
2022-11-14T02:59:07.441Z,39.38
2022-11-14T03:01:53.085Z,36.05
2022-11-14T03:04:39.181Z,33.28
2022-11-14T03:07:24.762Z,41.30
2022-11-14T03:10:11.316Z,43.03
2022-11-14T03:12:57.680Z,59.38
2022-11-14T03:15:43.522Z,49.55
2022-11-14T03:18:29.432Z,46.63
2022-11-14T03:21:19.258Z,48.13
2022-11-14T03:24:05.617Z,40.97
2022-11-14T03:26:51.930Z,49.08
2022-11-14T03:29:37.606Z,42.38
2022-11-14T03:32:23.225Z,40.22
2022-11-14T03:35:10.298Z,51.63
2022-11-14T03:37:56.918Z,54.75
2022-11-14T03:40:42.892Z,49.33
2022-11-14T03:43:33.823Z,43.03
2022-11-14T03:46:19.982Z,43.22
2022-11-14T03:49:05.717Z,46.13
2022-11-14T03:51:51.401Z,52.03
2022-11-14T03:54:38.279Z,51.10
2022-11-14T03:57:24.140Z,45.78
2022-11-14T04:00:10.901Z,51.75
2022-11-14T04:02:57.829Z,45.50
2022-11-14T04:05:47.065Z,56.10
2022-11-14T04:08:33.297Z,39.40
2022-11-14T04:11:19.930Z,41.38
2022-11-14T04:14:05.933Z,49.35
2022-11-14T04:16:51.813Z,48.50
2022-11-14T04:19:37.787Z,44.25
2022-11-14T04:22:23.769Z,42.83
2022-11-14T04:25:10.038Z,46.53
2022-11-14T04:27:55.700Z,45.92
2022-11-14T04:30:42.508Z,41.17
2022-11-14T04:33:28.768Z,41.90
2022-11-14T04:36:14.744Z,40.13
2022-11-14T04:39:01.436Z,39.42
2022-11-14T04:41:47.129Z,37.97
2022-11-14T04:44:33.052Z,46.38
2022-11-14T04:47:19.152Z,34.95
2022-11-14T04:50:05.848Z,35.05
2022-11-14T04:52:53.669Z,41.35
2022-11-14T04:55:39.367Z,44.58
2022-11-14T04:58:25.208Z,37.67
2022-11-14T05:01:13.694Z,45.57
2022-11-14T05:03:59.574Z,37.47
2022-11-14T05:06:45.297Z,42.60
2022-11-14T05:09:31.317Z,51.40
2022-11-14T05:12:17.245Z,56.77
2022-11-14T05:15:02.700Z,42.00
2022-11-14T05:17:48.264Z,41.58
2022-11-14T05:20:34.102Z,44.75
2022-11-14T05:23:24.473Z,44.63
2022-11-14T05:26:14.785Z,48.40
2022-11-14T05:29:00.866Z,48.35
2022-11-14T05:31:46.697Z,44.70
2022-11-14T05:34:32.613Z,43.13
2022-11-14T05:37:18.283Z,43.03
2022-11-14T05:40:05.785Z,45.35
2022-11-14T05:42:56.694Z,43.83
2022-11-14T05:45:42.405Z,54.70
2022-11-14T05:48:28.973Z,48.42
2022-11-14T05:51:15.383Z,45.38
2022-11-14T05:54:01.055Z,49.08
2022-11-14T05:56:47.089Z,55.72
2022-11-14T05:59:32.603Z,46.10
2022-11-14T06:02:18.248Z,41.83
2022-11-14T06:05:04.357Z,44.27
2022-11-14T06:07:57.354Z,55.35
2022-11-14T06:10:42.869Z,58.67
2022-11-14T06:13:28.520Z,54.83
2022-11-14T06:16:18.050Z,59.43
2022-11-14T06:19:05.392Z,49.03
2022-11-14T06:21:51.633Z,53.88
2022-11-14T06:24:37.714Z,55.35
2022-11-14T06:27:25.172Z,46.42
2022-11-14T06:30:12.041Z,52.80
2022-11-14T06:33:01.334Z,53.73
2022-11-14T06:35:46.890Z,57.40
2022-11-14T06:38:36.104Z,48.60
2022-11-14T06:41:23.236Z,50.47
2022-11-14T06:44:09.768Z,55.90
2022-11-14T06:46:56.641Z,57.20
2022-11-14T06:49:42.725Z,57.70
2022-11-14T06:52:28.697Z,50.35
2022-11-14T06:55:14.239Z,46.05
2022-11-14T06:57:59.784Z,48.75
2022-11-14T07:00:45.200Z,47.70
2022-11-14T07:03:31.297Z,54.38
2022-11-14T07:06:23.360Z,57.70
2022-11-14T07:09:10.943Z,53.33
2022-11-14T07:11:56.638Z,52.63
2022-11-14T07:14:43.484Z,46.40
2022-11-14T07:17:31.416Z,38.78
2022-11-14T07:20:20.706Z,39.30
2022-11-14T07:23:06.186Z,37.70
2022-11-14T07:25:52.163Z,39.30
2022-11-14T07:28:45.919Z,37.33
2022-11-14T07:31:33.859Z,30.58
2022-11-14T07:34:19.728Z,26.98
2022-11-14T07:37:05.749Z,33.78
2022-11-14T07:39:51.817Z,38.08
2022-11-14T07:42:37.806Z,37.92
2022-11-14T07:45:23.538Z,25.58
2022-11-14T07:48:09.328Z,31.42
2022-11-14T07:51:03.835Z,37.53
2022-11-14T07:53:55.932Z,24.27
2022-11-14T07:56:41.390Z,22.88
2022-11-14T07:59:26.978Z,23.92
2022-11-14T08:02:14.689Z,18.83
2022-11-14T08:05:01.411Z,24.75
2022-11-14T08:07:50.258Z,22.98
2022-11-14T08:10:35.995Z,24.42
2022-11-14T08:13:36.637Z,24.63
2022-11-14T08:16:22.596Z,28.17
2022-11-14T08:19:08.455Z,30.58
2022-11-14T08:21:54.418Z,26.98
2022-11-14T08:24:40.510Z,31.90
2022-11-14T08:27:26.467Z,27.25
2022-11-14T08:30:13.273Z,29.33
2022-11-14T08:33:03.536Z,23.00
2022-11-14T08:35:49.287Z,26.33
2022-11-14T08:38:35.417Z,22.92
2022-11-14T08:41:21.592Z,25.75
2022-11-14T08:44:07.362Z,22.50
2022-11-14T08:46:53.229Z,24.00
2022-11-14T08:49:38.898Z,22.90
2022-11-14T08:52:24.737Z,26.85
2022-11-14T08:55:10.719Z,21.92
2022-11-14T08:57:56.257Z,20.83
2022-11-14T09:00:42.465Z,23.08
2022-11-14T09:03:28.167Z,17.75
2022-11-14T09:06:14.099Z,21.98
2022-11-14T09:09:00.177Z,19.77
2022-11-14T09:11:45.573Z,17.75
2022-11-14T09:14:31.232Z,18.67
2022-11-14T09:17:17.273Z,15.35
2022-11-14T09:20:03.508Z,17.13
2022-11-14T09:22:52.170Z,16.50
2022-11-14T09:25:38.702Z,18.80
2022-11-14T09:28:25.063Z,17.23
2022-11-14T09:31:13.522Z,17.30
2022-11-14T09:33:59.088Z,16.02
2022-11-14T09:36:45.135Z,15.07
2022-11-14T09:39:31.055Z,16.58
2022-11-14T09:42:44.271Z,14.95
2022-11-14T09:45:31.000Z,18.15
2022-11-14T09:48:22.523Z,18.58
2022-11-14T09:51:16.176Z,16.13
2022-11-14T09:54:29.471Z,19.50
2022-11-14T09:57:21.059Z,23.98
2022-11-14T10:00:19.309Z,18.10
2022-11-14T10:04:08.325Z,16.42
2022-11-14T10:07:42.740Z,20.58
2022-11-14T10:10:39.454Z,17.00
2022-11-14T10:14:00.888Z,19.85
2022-11-14T10:17:12.846Z,14.90
2022-11-14T10:20:32.760Z,23.27
2022-11-14T10:23:30.813Z,18.10
2022-11-14T10:26:31.399Z,20.00
2022-11-14T10:29:41.233Z,25.73
2022-11-14T10:33:18.275Z,26.60
2022-11-14T10:36:15.533Z,23.50
2022-11-14T10:39:41.690Z,20.17
2022-11-14T10:42:40.334Z,23.80
2022-11-14T10:45:38.999Z,23.92
2022-11-14T10:48:49.091Z,21.83
2022-11-14T10:55:00.232Z,24.20
2022-11-14T10:57:46.617Z,20.60
2022-11-14T11:00:32.515Z,24.88
2022-11-14T11:03:18.424Z,26.02
2022-11-14T11:06:04.239Z,21.83
2022-11-14T11:09:08.833Z,26.25
2022-11-14T11:11:59.025Z,19.00
2022-11-14T11:17:38.543Z,18.33
2022-11-14T11:20:36.159Z,18.60
2022-11-14T11:23:31.893Z,21.40
2022-11-14T11:26:28.791Z,26.05
2022-11-14T11:29:18.403Z,26.25
2022-11-14T11:32:04.662Z,29.20
2022-11-14T11:34:52.159Z,29.45
2022-11-14T11:37:56.040Z,30.80
2022-11-14T11:40:47.930Z,26.83
2022-11-14T11:43:41.432Z,29.67
2022-11-14T11:46:47.040Z,30.25
2022-11-14T11:49:53.850Z,30.23
2022-11-14T11:53:05.682Z,31.35
2022-11-14T11:56:00.289Z,33.88
2022-11-14T11:58:59.011Z,27.17
2022-11-14T12:01:44.937Z,30.45
2022-11-14T12:04:31.472Z,32.97
2022-11-14T12:07:30.222Z,32.88
2022-11-14T12:10:28.954Z,31.35
2022-11-14T12:14:05.319Z,32.22
2022-11-14T12:17:39.730Z,28.92
2022-11-14T12:20:53.105Z,28.58
2022-11-14T12:24:23.691Z,28.65
2022-11-14T12:27:22.499Z,28.98
2022-11-14T12:30:24.638Z,29.70
2022-11-14T12:33:17.379Z,36.83
2022-11-14T12:36:10.055Z,36.28
2022-11-14T12:38:57.218Z,36.58
2022-11-14T12:41:43.226Z,38.50
2022-11-14T12:44:29.168Z,31.17
2022-11-14T12:47:29.028Z,37.35
2022-11-14T12:50:38.924Z,45.60
2022-11-14T12:53:35.978Z,62.30
2022-11-14T12:56:31.017Z,44.38
2022-11-14T12:59:53.456Z,42.55
2022-11-14T13:03:11.566Z,34.00
2022-11-14T13:06:09.613Z,36.60
2022-11-14T13:09:22.791Z,34.58
2022-11-14T13:13:23.127Z,36.03
2022-11-14T13:16:49.155Z,35.67
2022-11-14T13:20:04.291Z,36.83
2022-11-14T13:22:50.343Z,36.20
2022-11-14T13:25:36.175Z,39.47
2022-11-14T13:28:51.238Z,37.97
2022-11-14T13:31:37.116Z,34.42
2022-11-14T13:35:00.769Z,34.45
2022-11-14T13:38:01.725Z,38.65
2022-11-14T13:41:24.016Z,39.50
2022-11-14T13:44:24.772Z,32.72
2022-11-14T13:47:47.614Z,40.80
2022-11-14T13:50:40.563Z,39.03
2022-11-14T13:53:30.333Z,43.08
2022-11-14T13:56:43.554Z,38.10
2022-11-14T14:00:18.364Z,45.80
2022-11-14T14:03:23.644Z,45.58
2022-11-14T14:06:20.012Z,43.28
2022-11-14T14:09:28.748Z,38.35
2022-11-14T14:12:42.383Z,41.22
2022-11-14T14:15:48.319Z,44.58
2022-11-14T14:18:58.821Z,54.40
2022-11-14T14:22:25.845Z,59.78
2022-11-14T14:25:26.787Z,52.65
2022-11-14T14:28:31.944Z,49.75
2022-11-14T14:31:25.036Z,53.75
2022-11-14T14:34:29.067Z,51.00
2022-11-14T14:37:21.653Z,60.00
2022-11-14T14:40:43.166Z,54.10
2022-11-14T14:43:35.786Z,56.50
2022-11-14T14:46:33.648Z,50.95
2022-11-14T14:49:35.311Z,62.75
2022-11-14T14:52:33.032Z,63.70
2022-11-14T14:55:29.125Z,63.83
2022-11-14T14:58:30.566Z,55.30
2022-11-14T15:01:21.435Z,62.53
2022-11-14T15:04:13.525Z,56.42
2022-11-14T15:06:59.714Z,66.30
2022-11-14T15:09:57.939Z,64.20
2022-11-14T15:12:44.748Z,57.53
2022-11-14T15:15:31.851Z,55.22
2022-11-14T15:18:29.833Z,54.20
2022-11-14T15:21:25.097Z,59.40
2022-11-14T15:24:20.559Z,60.70
2022-11-14T15:27:19.382Z,56.15
2022-11-14T15:30:19.632Z,53.00
2022-11-14T15:33:25.804Z,58.65
2022-11-14T15:36:19.752Z,57.38
2022-11-14T15:39:28.671Z,60.58
2022-11-14T15:42:28.932Z,66.75
2022-11-14T15:45:26.902Z,65.85
2022-11-14T15:48:19.160Z,78.07
2022-11-14T15:51:05.430Z,64.43
2022-11-14T15:53:53.511Z,58.20
2022-11-14T15:56:39.263Z,52.55
2022-11-14T15:59:27.641Z,49.10
2022-11-14T16:02:21.975Z,46.63
2022-11-14T16:05:12.602Z,43.78
2022-11-14T16:07:58.272Z,48.20
2022-11-14T16:10:44.253Z,38.70
2022-11-14T16:13:30.399Z,38.78
2022-11-14T16:16:16.459Z,36.47
2022-11-14T16:19:02.444Z,49.53
2022-11-14T16:21:48.540Z,55.67
2022-11-14T16:24:34.586Z,48.53
2022-11-14T16:27:20.389Z,61.95
2022-11-14T16:30:06.755Z,59.45
2022-11-14T16:32:53.014Z,67.97
2022-11-14T16:35:38.779Z,55.05
2022-11-14T16:38:24.515Z,61.45
2022-11-14T16:41:13.350Z,49.40
2022-11-14T16:43:59.502Z,63.47
2022-11-14T16:46:45.922Z,54.47
2022-11-14T16:49:31.323Z,42.65
2022-11-14T16:52:17.209Z,41.75
2022-11-14T16:55:02.909Z,37.58
2022-11-14T16:57:49.390Z,34.72
2022-11-14T17:00:35.925Z,41.30
2022-11-14T17:03:22.449Z,33.88
2022-11-14T17:06:12.644Z,36.28
2022-11-14T17:09:00.217Z,40.30
2022-11-14T17:11:45.953Z,36.92
2022-11-14T17:14:31.699Z,28.35
2022-11-14T17:17:18.168Z,30.05
2022-11-14T17:20:04.585Z,35.97
2022-11-14T17:22:50.422Z,50.78
2022-11-14T17:25:36.683Z,24.17
2022-11-14T17:28:22.811Z,25.48
2022-11-14T17:31:09.481Z,30.38
2022-11-14T17:33:58.335Z,31.65
2022-11-14T17:36:43.824Z,33.83
2022-11-14T17:39:29.989Z,20.20
2022-11-14T17:42:15.971Z,25.05
2022-11-14T17:45:02.144Z,20.23
2022-11-14T17:47:48.010Z,27.77
2022-11-14T17:50:37.633Z,23.83
2022-11-14T17:53:23.751Z,21.30
2022-11-14T17:56:19.628Z,33.47
2022-11-14T17:59:05.524Z,21.30
2022-11-14T18:01:52.418Z,17.55
2022-11-14T18:04:38.536Z,20.73
2022-11-14T18:07:24.659Z,23.23
2022-11-14T18:10:10.467Z,20.80
2022-11-14T18:12:56.592Z,18.33
2022-11-14T18:15:42.773Z,18.30
2022-11-14T18:18:34.514Z,21.42
2022-11-14T18:21:24.634Z,18.38
2022-11-14T18:24:14.128Z,22.52
2022-11-14T18:27:00.003Z,18.58
2022-11-14T18:29:46.210Z,26.70
2022-11-14T18:32:32.025Z,28.10
2022-11-14T18:35:18.046Z,22.85
2022-11-14T18:38:04.193Z,28.38
2022-11-14T18:40:55.831Z,28.52
2022-11-14T18:43:44.652Z,24.98
2022-11-14T18:46:37.151Z,23.95
2022-11-14T18:49:23.625Z,20.50
2022-11-14T18:52:14.198Z,22.63
2022-11-14T18:55:04.242Z,34.50
2022-11-14T18:57:49.757Z,26.77
2022-11-14T19:00:36.025Z,35.20
2022-11-14T19:03:22.205Z,28.67
2022-11-14T19:06:12.121Z,24.73
2022-11-14T19:09:13.599Z,20.63
2022-11-14T19:12:17.662Z,36.78
2022-11-14T19:15:03.591Z,20.60
2022-11-14T19:17:49.486Z,20.65
2022-11-14T19:20:35.303Z,22.48
2022-11-14T19:23:21.542Z,22.00
2022-11-14T19:26:07.363Z,26.15
2022-11-14T19:28:53.281Z,23.70
2022-11-14T19:31:39.933Z,22.45
2022-11-14T19:34:25.929Z,23.48
2022-11-14T19:37:11.869Z,22.83
2022-11-14T19:39:57.751Z,26.63
2022-11-14T19:42:43.671Z,24.92
2022-11-14T19:45:33.407Z,28.70
2022-11-14T19:48:19.220Z,24.97
2022-11-14T19:51:09.714Z,23.05
2022-11-14T19:53:58.387Z,29.63
2022-11-14T19:56:44.506Z,26.65
2022-11-14T19:59:30.367Z,22.55
2022-11-14T20:02:17.284Z,23.45
2022-11-14T20:05:03.255Z,22.42
2022-11-14T20:07:49.077Z,26.48
2022-11-14T20:10:47.599Z,21.10
2022-11-14T20:13:40.334Z,25.08
2022-11-14T20:16:29.810Z,24.90
2022-11-14T20:19:16.250Z,24.50
2022-11-14T20:22:02.428Z,23.95
2022-11-14T20:24:48.656Z,23.13
2022-11-14T20:27:34.391Z,24.75
2022-11-14T20:30:20.209Z,22.02
2022-11-14T20:33:07.779Z,22.20
2022-11-14T20:35:53.933Z,27.33
2022-11-14T20:38:39.688Z,23.42
2022-11-14T20:41:25.880Z,21.70
2022-11-14T20:44:11.836Z,23.02
2022-11-14T20:46:57.808Z,20.88
2022-11-14T20:49:44.423Z,24.08
2022-11-14T20:52:31.049Z,26.15
2022-11-14T20:55:17.347Z,28.75
2022-11-14T20:58:03.441Z,23.08
2022-11-14T21:00:52.967Z,23.45
2022-11-14T21:03:39.934Z,28.27
2022-11-14T21:06:25.904Z,20.25
2022-11-14T21:09:11.543Z,20.83
2022-11-14T21:11:57.566Z,20.52
2022-11-14T21:14:43.079Z,22.23
2022-11-14T21:17:28.895Z,17.55
2022-11-14T21:20:15.001Z,18.33
2022-11-14T21:23:00.854Z,21.02
2022-11-14T21:25:46.503Z,17.60
2022-11-14T21:28:34.112Z,19.00
2022-11-14T21:31:27.152Z,19.25
2022-11-14T21:34:16.741Z,20.05
2022-11-14T21:37:02.332Z,19.38
2022-11-14T21:39:49.052Z,16.00
2022-11-14T21:42:36.653Z,15.48
2022-11-14T21:45:22.548Z,16.10
2022-11-14T21:48:08.320Z,15.40
2022-11-14T21:50:53.918Z,20.30
2022-11-14T21:53:41.024Z,16.80
2022-11-14T21:56:30.340Z,14.48
2022-11-14T21:59:18.984Z,16.45
2022-11-14T22:02:23.434Z,15.90
2022-11-14T22:05:09.053Z,20.92
2022-11-14T22:07:54.929Z,17.88
2022-11-14T22:10:41.094Z,17.10
2022-11-14T22:13:30.499Z,15.52
2022-11-14T22:16:21.013Z,16.80
2022-11-14T22:19:07.017Z,18.33
2022-11-14T22:21:53.080Z,16.20
2022-11-14T22:24:39.050Z,16.10
2022-11-14T22:27:26.034Z,18.75
2022-11-14T22:30:12.238Z,16.00
2022-11-14T22:33:00.418Z,16.23
2022-11-14T22:35:46.533Z,15.27
2022-11-14T22:38:36.587Z,20.10
2022-11-14T22:41:32.704Z,18.73
2022-11-14T22:44:19.080Z,19.58
2022-11-14T22:47:04.906Z,18.52
2022-11-14T22:49:50.770Z,19.00
2022-11-14T22:52:36.810Z,18.58
2022-11-14T22:55:22.488Z,20.88
2022-11-14T22:58:08.696Z,18.45
2022-11-14T23:00:54.483Z,17.83
2022-11-14T23:03:40.964Z,16.15
2022-11-14T23:06:28.606Z,20.67
2022-11-14T23:09:14.543Z,20.35
2022-11-14T23:12:00.558Z,21.10
2022-11-14T23:14:46.283Z,21.80
2022-11-14T23:17:32.729Z,19.35
2022-11-14T23:20:18.890Z,19.63
2022-11-14T23:23:05.906Z,19.92
2022-11-14T23:25:51.795Z,22.13
2022-11-14T23:28:38.161Z,19.60
2022-11-14T23:31:25.228Z,22.58
2022-11-14T23:34:10.958Z,18.85
2022-11-14T23:36:56.646Z,22.95
2022-11-14T23:39:42.715Z,19.95
2022-11-14T23:42:28.710Z,19.45
2022-11-14T23:45:14.380Z,22.25
2022-11-14T23:47:59.886Z,18.63
2022-11-14T23:50:54.120Z,16.20
2022-11-14T23:53:40.244Z,20.75
2022-11-14T23:56:26.307Z,16.02
2022-11-14T23:59:11.960Z,21.88
